createdAt,value
2018-02-22T00:02:17.362Z,49.00
2018-02-22T00:04:48.696Z,59.63
2018-02-22T00:07:18.671Z,50.17
2018-02-22T00:09:48.520Z,48.73
2018-02-22T00:12:18.453Z,47.53
2018-02-22T00:14:48.400Z,52.77
2018-02-22T00:17:18.254Z,49.93
2018-02-22T00:19:48.164Z,48.30
2018-02-22T00:22:18.803Z,58.67
2018-02-22T00:24:48.885Z,57.37
2018-02-22T00:27:18.766Z,57.20
2018-02-22T00:29:48.617Z,57.87
2018-02-22T00:32:18.482Z,53.60
2018-02-22T00:34:48.537Z,53.53
2018-02-22T00:37:18.399Z,54.23
2018-02-22T00:39:48.248Z,60.30
2018-02-22T00:42:18.160Z,59.37
2018-02-22T00:44:48.028Z,55.97
2018-02-22T00:47:17.927Z,58.10
2018-02-22T00:49:47.778Z,61.23
2018-02-22T00:52:17.624Z,61.07
2018-02-22T00:54:47.443Z,52.60
2018-02-22T00:57:17.285Z,59.53
2018-02-22T00:59:47.166Z,62.73
2018-02-22T01:02:17.028Z,63.00
2018-02-22T01:04:47.362Z,62.53
2018-02-22T01:07:17.217Z,57.80
2018-02-22T01:09:47.073Z,63.43
2018-02-22T01:12:17.345Z,61.70
2018-02-22T01:14:47.209Z,65.13
2018-02-22T01:17:17.083Z,65.53
2018-02-22T01:19:47.118Z,64.63
2018-02-22T01:22:17.003Z,59.63
2018-02-22T01:24:46.920Z,57.90
2018-02-22T01:27:16.753Z,51.47
2018-02-22T01:29:46.651Z,52.97
2018-02-22T01:32:16.532Z,59.57
2018-02-22T01:34:46.371Z,61.47
2018-02-22T01:37:16.317Z,47.40
2018-02-22T01:39:46.171Z,54.60
2018-02-22T01:42:16.163Z,54.47
2018-02-22T01:44:46.019Z,58.23
2018-02-22T01:47:15.920Z,57.67
2018-02-22T01:49:45.801Z,57.07
2018-02-22T01:52:15.661Z,60.13
2018-02-22T01:54:45.509Z,58.97
2018-02-22T01:57:15.415Z,59.57
2018-02-22T01:59:45.348Z,58.27
2018-02-22T02:02:15.204Z,58.90
2018-02-22T02:04:45.121Z,61.07
2018-02-22T02:07:14.977Z,54.10
2018-02-22T02:09:44.853Z,55.90
2018-02-22T02:12:14.728Z,57.63
2018-02-22T02:14:44.588Z,53.80
2018-02-22T02:17:14.468Z,55.57
2018-02-22T02:19:44.797Z,63.87
2018-02-22T02:22:14.766Z,61.07
2018-02-22T02:24:44.701Z,62.83
2018-02-22T02:27:14.674Z,65.87
2018-02-22T02:29:44.704Z,53.27
2018-02-22T02:32:14.599Z,51.50
2018-02-22T02:34:44.488Z,58.23
2018-02-22T02:37:14.510Z,60.47
2018-02-22T02:39:44.375Z,59.53
2018-02-22T02:42:14.268Z,55.67
2018-02-22T02:44:44.166Z,51.80
2018-02-22T02:47:14.064Z,50.47
2018-02-22T02:49:43.969Z,54.73
2018-02-22T02:52:13.829Z,68.17
2018-02-22T02:54:43.738Z,54.27
2018-02-22T02:57:13.623Z,50.13
2018-02-22T02:59:43.532Z,60.70
2018-02-22T03:02:13.374Z,54.47
2018-02-22T03:04:43.262Z,55.03
2018-02-22T03:07:13.107Z,55.43
2018-02-22T03:09:43.215Z,56.50
2018-02-22T03:12:13.157Z,61.00
2018-02-22T03:14:43.061Z,50.87
2018-02-22T03:17:12.966Z,56.40
2018-02-22T03:19:43.041Z,54.93
2018-02-22T03:22:12.956Z,54.20
2018-02-22T03:24:42.810Z,59.90
2018-02-22T03:27:12.727Z,55.17
2018-02-22T03:29:42.630Z,58.43
2018-02-22T03:32:12.622Z,57.10
2018-02-22T03:34:42.979Z,55.07
2018-02-22T03:37:12.865Z,52.03
2018-02-22T03:39:42.722Z,51.83
2018-02-22T03:42:12.630Z,50.13
2018-02-22T03:44:42.466Z,60.47
2018-02-22T03:47:12.346Z,61.33
2018-02-22T03:49:42.405Z,53.23
2018-02-22T03:52:12.317Z,52.73
2018-02-22T03:54:42.183Z,57.03
2018-02-22T03:57:12.055Z,61.00
2018-02-22T03:59:41.934Z,58.23
2018-02-22T04:02:11.776Z,54.30
2018-02-22T04:04:41.626Z,47.90
2018-02-22T04:07:12.097Z,54.10
2018-02-22T04:09:42.003Z,49.83
2018-02-22T04:12:11.899Z,55.50
2018-02-22T04:14:41.769Z,51.60
2018-02-22T04:17:11.678Z,55.60
2018-02-22T04:19:41.543Z,56.77
2018-02-22T04:22:11.413Z,48.17
2018-02-22T04:24:41.330Z,52.30
2018-02-22T04:27:11.208Z,57.60
2018-02-22T04:29:41.125Z,53.67
2018-02-22T04:32:11.005Z,57.30
2018-02-22T04:37:17.145Z,49.57
2018-02-22T04:39:47.103Z,49.60
2018-02-22T04:42:17.022Z,51.90
2018-02-22T04:44:46.947Z,55.00
2018-02-22T04:47:16.850Z,52.33
2018-02-22T04:49:46.744Z,52.47
2018-02-22T04:52:16.655Z,51.87
2018-02-22T04:54:46.602Z,51.13
2018-02-22T04:57:16.594Z,59.47
2018-02-22T04:59:46.446Z,52.30
2018-02-22T05:02:18.107Z,53.67
2018-02-22T05:04:47.950Z,51.97
2018-02-22T05:07:17.826Z,50.73
2018-02-22T05:09:47.722Z,49.70
2018-02-22T05:12:17.613Z,51.27
2018-02-22T05:14:47.524Z,49.87
2018-02-22T05:17:17.427Z,43.33
2018-02-22T05:19:47.343Z,49.43
2018-02-22T05:22:17.211Z,51.80
2018-02-22T05:24:47.105Z,52.60
2018-02-22T05:27:17.072Z,51.50
2018-02-22T05:29:46.951Z,54.50
2018-02-22T05:32:16.800Z,53.70
2018-02-22T05:34:46.764Z,56.10
2018-02-22T05:37:16.671Z,55.83
2018-02-22T05:39:46.529Z,63.13
2018-02-22T05:42:16.487Z,57.77
2018-02-22T05:44:46.354Z,57.53
2018-02-22T05:47:16.360Z,47.53
2018-02-22T05:49:46.234Z,55.37
2018-02-22T05:52:16.148Z,53.40
2018-02-22T05:54:46.068Z,63.50
2018-02-22T05:57:16.800Z,46.27
2018-02-22T05:59:46.673Z,54.53
2018-02-22T06:02:16.639Z,55.97
2018-02-22T06:04:46.526Z,44.30
2018-02-22T06:07:16.570Z,52.83
2018-02-22T06:09:46.438Z,46.87
2018-02-22T06:12:16.370Z,49.10
2018-02-22T06:14:46.215Z,47.60
2018-02-22T06:17:16.133Z,43.63
2018-02-22T06:19:46.806Z,47.40
2018-02-22T06:22:16.738Z,49.30
2018-02-22T06:24:46.664Z,55.20
2018-02-22T06:27:17.644Z,43.87
2018-02-22T06:29:47.675Z,51.23
2018-02-22T06:32:17.533Z,44.50
2018-02-22T06:34:47.485Z,49.77
2018-02-22T06:37:17.370Z,48.57
2018-02-22T06:39:47.248Z,53.20
2018-02-22T06:42:17.210Z,51.50
2018-02-22T06:44:47.276Z,49.37
2018-02-22T06:47:18.082Z,53.93
2018-02-22T06:49:47.939Z,48.83
2018-02-22T06:52:17.861Z,46.80
2018-02-22T06:54:47.765Z,60.73
2018-02-22T06:57:18.048Z,63.30
2018-02-22T06:59:47.972Z,57.20
2018-02-22T07:02:17.826Z,49.80
2018-02-22T07:04:47.944Z,49.03
2018-02-22T07:07:17.865Z,45.37
2018-02-22T07:09:47.984Z,51.40
2018-02-22T07:12:17.889Z,36.93
2018-02-22T07:14:47.861Z,48.50
2018-02-22T07:17:18.732Z,54.33
2018-02-22T07:19:48.787Z,56.73
2018-02-22T07:22:18.661Z,49.37
2018-02-22T07:24:48.570Z,52.33
2018-02-22T07:27:18.462Z,51.00
2018-02-22T07:29:48.358Z,50.00
2018-02-22T07:32:19.254Z,52.33
2018-02-22T07:34:49.236Z,49.80
2018-02-22T07:37:19.127Z,50.63
2018-02-22T07:39:49.050Z,58.33
2018-02-22T07:42:18.895Z,50.03
2018-02-22T07:44:49.484Z,47.67
2018-02-22T07:47:19.377Z,53.50
2018-02-22T07:49:50.038Z,46.73
2018-02-22T07:52:19.923Z,44.20
2018-02-22T07:54:49.827Z,52.80
2018-02-22T07:57:19.920Z,49.07
2018-02-22T07:59:50.638Z,50.90
2018-02-22T08:02:20.671Z,45.10
2018-02-22T08:04:50.523Z,44.63
2018-02-22T08:07:20.441Z,45.30
2018-02-22T08:09:50.324Z,41.43
2018-02-22T08:12:20.199Z,47.67
2018-02-22T08:14:50.714Z,51.43
2018-02-22T08:17:20.689Z,48.83
2018-02-22T08:19:50.710Z,49.00
2018-02-22T08:22:20.618Z,47.73
2018-02-22T08:24:50.502Z,49.60
2018-02-22T08:27:20.386Z,47.10
2018-02-22T08:29:50.269Z,43.83
2018-02-22T08:32:20.185Z,47.47
2018-02-22T08:34:51.664Z,49.67
2018-02-22T08:37:21.566Z,46.47
2018-02-22T08:39:51.414Z,40.63
2018-02-22T08:42:21.381Z,44.80
2018-02-22T08:44:51.799Z,50.67
2018-02-22T08:47:21.682Z,54.80
2018-02-22T08:49:51.536Z,48.00
2018-02-22T08:52:21.413Z,48.50
2018-02-22T08:54:51.258Z,44.80
2018-02-22T08:57:21.165Z,41.43
2018-02-22T08:59:51.003Z,43.13
2018-02-22T09:02:21.122Z,46.87
2018-02-22T09:04:50.969Z,49.73
2018-02-22T09:07:20.837Z,51.60
2018-02-22T09:09:50.700Z,45.63
2018-02-22T09:12:20.540Z,47.93
2018-02-22T09:14:50.390Z,46.27
2018-02-22T09:17:20.240Z,47.70
2018-02-22T09:19:50.229Z,46.17
2018-02-22T09:22:20.094Z,45.57
2018-02-22T09:24:49.974Z,44.90
2018-02-22T09:27:19.806Z,50.43
2018-02-22T09:29:49.694Z,44.67
2018-02-22T09:32:19.524Z,46.30
2018-02-22T09:34:49.427Z,44.70
2018-02-22T09:37:19.295Z,40.67
2018-02-22T09:39:49.139Z,42.10
2018-02-22T09:42:19.260Z,44.83
2018-02-22T09:44:49.142Z,50.03
2018-02-22T09:47:19.074Z,44.50
2018-02-22T09:49:48.909Z,56.70
2018-02-22T09:52:18.863Z,45.93
2018-02-22T09:54:48.884Z,45.43
2018-02-22T09:57:18.892Z,44.60
2018-02-22T09:59:48.790Z,45.73
2018-02-22T10:02:18.745Z,46.63
2018-02-22T10:04:48.685Z,41.97
2018-02-22T10:07:18.524Z,46.33
2018-02-22T10:09:48.527Z,40.90
2018-02-22T10:12:18.527Z,43.53
2018-02-22T10:14:48.500Z,41.27
2018-02-22T10:17:18.483Z,45.00
2018-02-22T10:19:49.261Z,42.00
2018-02-22T10:22:19.093Z,38.77
2018-02-22T10:24:48.980Z,42.73
2018-02-22T10:27:19.344Z,37.73
2018-02-22T10:29:49.710Z,41.70
2018-02-22T10:32:19.572Z,45.13
2018-02-22T10:34:49.507Z,37.63
2018-02-22T10:37:19.342Z,37.60
2018-02-22T10:39:49.291Z,39.33
2018-02-22T10:42:19.137Z,37.33
2018-02-22T10:44:49.258Z,32.07
2018-02-22T10:47:19.526Z,39.43
2018-02-22T10:49:49.558Z,38.53
2018-02-22T10:52:19.548Z,35.40
2018-02-22T10:54:50.113Z,36.07
2018-02-22T10:57:19.973Z,38.50
2018-02-22T10:59:49.857Z,31.37
2018-02-22T11:02:25.471Z,34.20
2018-02-22T11:04:55.469Z,35.97
2018-02-22T11:07:25.401Z,30.43
2018-02-22T11:09:55.523Z,47.93
2018-02-22T11:12:25.366Z,20.63
2018-02-22T11:14:55.240Z,18.60
2018-02-22T11:17:25.117Z,33.83
2018-02-22T11:19:54.980Z,22.93
2018-02-22T11:22:24.877Z,24.77
2018-02-22T11:24:54.762Z,19.40
2018-02-22T11:27:25.068Z,21.73
2018-02-22T11:29:54.921Z,26.63
2018-02-22T11:32:24.787Z,27.47
2018-02-22T11:34:54.758Z,33.23
2018-02-22T11:37:24.931Z,32.67
2018-02-22T11:39:54.835Z,30.60
2018-02-22T11:42:24.783Z,35.67
2018-02-22T11:44:54.947Z,46.30
2018-02-22T11:47:29.264Z,39.93
2018-02-22T11:49:59.257Z,35.80
2018-02-22T11:52:29.303Z,35.93
2018-02-22T11:54:59.752Z,32.27
2018-02-22T11:57:29.646Z,34.40
2018-02-22T12:00:00.350Z,36.80
2018-02-22T12:02:30.265Z,36.50
2018-02-22T12:05:00.116Z,34.30
2018-02-22T12:07:30.300Z,29.40
2018-02-22T12:10:00.260Z,36.20
2018-02-22T12:12:30.241Z,31.63
2018-02-22T12:15:00.139Z,29.50
2018-02-22T12:17:29.990Z,24.00
2018-02-22T12:19:59.881Z,30.60
2018-02-22T12:22:32.207Z,29.43
2018-02-22T12:25:02.138Z,29.77
2018-02-22T12:27:32.373Z,20.40
2018-02-22T12:30:02.373Z,26.90
2018-02-22T12:32:32.272Z,37.50
2018-02-22T12:35:02.166Z,24.77
2018-02-22T12:37:32.025Z,29.97
2018-02-22T12:40:01.969Z,27.17
2018-02-22T12:42:32.002Z,29.63
2018-02-22T12:45:01.863Z,29.63
2018-02-22T12:47:31.888Z,27.73
2018-02-22T12:50:01.953Z,28.37
2018-02-22T12:52:31.921Z,32.17
2018-02-22T12:55:01.825Z,30.37
2018-02-22T12:57:31.749Z,29.80
2018-02-22T13:00:01.979Z,29.00
2018-02-22T13:02:31.846Z,33.83
2018-02-22T13:05:01.846Z,21.03
2018-02-22T13:07:31.677Z,23.17
2018-02-22T13:10:01.803Z,25.70
2018-02-22T13:12:31.610Z,26.90
2018-02-22T13:15:01.482Z,28.40
2018-02-22T13:17:31.388Z,32.77
2018-02-22T13:20:01.317Z,34.03
2018-02-22T13:22:31.294Z,29.17
2018-02-22T13:25:01.205Z,30.67
2018-02-22T13:27:31.758Z,27.70
2018-02-22T13:30:01.636Z,30.27
2018-02-22T13:32:43.289Z,27.63
2018-02-22T13:35:13.236Z,26.53
2018-02-22T13:40:55.468Z,25.30
2018-02-22T13:43:25.375Z,28.23
2018-02-22T13:48:25.414Z,36.37
2018-02-22T13:51:16.158Z,23.73
2018-02-22T13:53:46.206Z,29.90
2018-02-22T13:56:28.001Z,31.47
2018-02-22T13:58:57.918Z,27.10
2018-02-22T14:01:39.703Z,29.67
2018-02-22T14:04:09.644Z,20.77
2018-02-22T14:06:39.565Z,26.73
2018-02-22T14:09:09.444Z,24.87
2018-02-22T14:11:39.428Z,24.00
2018-02-22T14:14:09.303Z,22.43
2018-02-22T14:16:39.257Z,24.13
2018-02-22T14:19:09.152Z,27.50
2018-02-22T14:21:39.006Z,25.73
2018-02-22T14:24:08.913Z,26.60
2018-02-22T14:26:38.766Z,26.67
2018-02-22T14:29:08.702Z,22.87
2018-02-22T14:31:38.592Z,28.07
2018-02-22T14:34:08.499Z,22.43
2018-02-22T14:36:39.115Z,23.07
2018-02-22T14:39:08.999Z,26.30
2018-02-22T14:41:38.885Z,24.60
2018-02-22T14:44:08.828Z,24.50
2018-02-22T14:46:38.725Z,27.43
2018-02-22T14:49:08.592Z,25.37
2018-02-22T14:51:38.449Z,26.10
2018-02-22T14:54:08.314Z,24.90
2018-02-22T14:56:38.330Z,24.87
2018-02-22T14:59:08.225Z,23.73
2018-02-22T15:01:38.088Z,24.17
2018-02-22T15:04:07.967Z,22.80
2018-02-22T15:06:37.826Z,23.17
2018-02-22T15:09:07.734Z,25.33
2018-02-22T15:11:37.648Z,22.87
2018-02-22T15:14:07.493Z,23.43
2018-02-22T15:16:37.446Z,23.43
2018-02-22T15:19:07.338Z,22.37
2018-02-22T15:21:37.284Z,22.87
2018-02-22T15:24:07.131Z,24.57
2018-02-22T15:26:37.094Z,22.33
2018-02-22T15:29:06.975Z,26.50
2018-02-22T15:31:36.844Z,25.13
2018-02-22T15:34:06.729Z,23.30
2018-02-22T15:36:36.616Z,25.77
2018-02-22T15:39:06.480Z,25.47
2018-02-22T15:41:37.687Z,24.10
2018-02-22T15:44:07.556Z,19.53
2018-02-22T15:46:37.512Z,20.90
2018-02-22T15:49:07.412Z,25.77
2018-02-22T15:51:37.274Z,24.30
2018-02-22T15:54:07.360Z,26.13
2018-02-22T15:56:37.407Z,31.50
2018-02-22T15:59:07.706Z,26.47
2018-02-22T16:01:37.723Z,34.10
2018-02-22T16:04:07.720Z,33.43
2018-02-22T16:06:37.637Z,21.97
2018-02-22T16:09:07.570Z,37.10
2018-02-22T16:11:37.528Z,35.47
2018-02-22T16:14:07.463Z,42.30
2018-02-22T16:16:37.323Z,41.30
2018-02-22T16:19:07.258Z,40.87
2018-02-22T16:21:37.143Z,35.77
2018-02-22T16:24:07.613Z,39.77
2018-02-22T16:26:37.519Z,37.00
2018-02-22T16:29:07.473Z,39.17
2018-02-22T16:31:37.554Z,45.40
2018-02-22T16:34:07.409Z,40.03
2018-02-22T16:36:37.255Z,40.90
2018-02-22T16:39:07.200Z,43.83
2018-02-22T16:41:37.116Z,47.13
2018-02-22T16:44:07.040Z,29.10
2018-02-22T16:46:36.909Z,46.50
2018-02-22T16:49:07.822Z,46.87
2018-02-22T16:51:37.732Z,48.30
2018-02-22T16:54:07.594Z,42.33
2018-02-22T16:56:37.561Z,47.83
2018-02-22T16:59:07.600Z,50.83
2018-02-22T17:01:37.488Z,49.90
2018-02-22T17:04:07.474Z,41.20
2018-02-22T17:06:37.326Z,50.13
2018-02-22T17:09:07.797Z,53.77
2018-02-22T17:11:37.800Z,52.03
2018-02-22T17:14:07.708Z,43.70
2018-02-22T17:16:37.682Z,39.87
2018-02-22T17:19:07.593Z,49.37
2018-02-22T17:21:37.479Z,51.43
2018-02-22T17:24:14.919Z,50.90
2018-02-22T17:26:50.526Z,52.57
2018-02-22T17:29:25.844Z,53.00
2018-02-22T17:32:04.067Z,43.87
2018-02-22T17:34:34.019Z,42.70
2018-02-22T17:37:04.402Z,42.23
2018-02-22T17:39:39.847Z,39.20
2018-02-22T17:42:09.836Z,38.00
2018-02-22T17:44:39.740Z,26.60
2018-02-22T17:47:09.621Z,37.93
2018-02-22T17:49:39.710Z,32.03
2018-02-22T17:52:09.837Z,27.73
2018-02-22T17:54:39.761Z,22.20
2018-02-22T17:57:09.654Z,28.03
2018-02-22T17:59:39.582Z,24.83
2018-02-22T18:02:09.439Z,23.13
2018-02-22T18:04:39.280Z,21.00
2018-02-22T18:07:09.185Z,19.50
2018-02-22T18:09:39.037Z,17.50
2018-02-22T18:12:08.932Z,17.90
2018-02-22T18:14:38.813Z,17.77
2018-02-22T18:17:08.743Z,19.37
2018-02-22T18:19:38.606Z,25.83
2018-02-22T18:22:08.452Z,19.87
2018-02-22T18:24:38.527Z,16.90
2018-02-22T18:27:08.450Z,18.37
2018-02-22T18:29:38.333Z,13.03
2018-02-22T18:32:08.215Z,19.67
2018-02-22T18:34:38.187Z,17.73
2018-02-22T18:37:13.650Z,20.13
2018-02-22T18:39:43.754Z,16.33
2018-02-22T18:42:20.311Z,13.10
2018-02-22T18:44:55.987Z,14.67
2018-02-22T18:47:25.817Z,15.70
2018-02-22T18:49:55.661Z,12.40
2018-02-22T18:52:26.631Z,22.50
2018-02-22T18:54:56.482Z,21.43
2018-02-22T18:57:26.442Z,19.60
2018-02-22T18:59:56.302Z,17.63
2018-02-22T19:02:26.210Z,16.60
2018-02-22T19:04:56.136Z,16.70
2018-02-22T19:07:26.583Z,13.50
2018-02-22T19:09:56.651Z,13.80
2018-02-22T19:12:26.603Z,15.33
2018-02-22T19:14:56.839Z,12.77
2018-02-22T19:17:26.898Z,12.30
2018-02-22T19:19:56.739Z,15.73
2018-02-22T19:22:26.588Z,18.57
2018-02-22T19:24:56.458Z,10.40
2018-02-22T19:27:26.349Z,9.93
2018-02-22T19:29:56.264Z,12.20
2018-02-22T19:32:26.405Z,13.23
2018-02-22T19:34:56.329Z,11.50
2018-02-22T19:37:26.711Z,13.03
2018-02-22T19:39:56.584Z,16.33
2018-02-22T19:42:26.432Z,11.97
2018-02-22T19:44:56.342Z,14.70
2018-02-22T19:47:26.781Z,15.80
2018-02-22T19:49:56.717Z,13.03
2018-02-22T19:52:26.571Z,12.57
2018-02-22T19:54:56.440Z,12.50
2018-02-22T19:57:27.048Z,9.30
2018-02-22T19:59:56.937Z,13.57
2018-02-22T20:02:26.778Z,9.80
2018-02-22T20:04:56.635Z,11.60
2018-02-22T20:07:27.140Z,7.67
2018-02-22T20:09:57.003Z,9.53
2018-02-22T20:12:26.890Z,9.07
2018-02-22T20:14:56.828Z,12.93
2018-02-22T20:17:26.988Z,10.83
2018-02-22T20:19:58.586Z,9.60
2018-02-22T20:22:28.682Z,10.27
2018-02-22T20:24:58.538Z,10.73
2018-02-22T20:27:28.756Z,12.10
2018-02-22T20:29:58.673Z,9.70
2018-02-22T20:32:28.627Z,10.67
2018-02-22T20:34:58.470Z,9.90
2018-02-22T20:37:28.637Z,8.90
2018-02-22T20:39:58.509Z,10.93
2018-02-22T20:42:28.394Z,9.33
2018-02-22T20:44:58.259Z,15.27
2018-02-22T20:47:28.127Z,8.40
2018-02-22T20:49:57.982Z,9.43
2018-02-22T20:52:27.882Z,7.60
2018-02-22T20:55:14.564Z,7.87
2018-02-22T20:57:44.539Z,8.57
2018-02-22T21:00:15.091Z,11.57
2018-02-22T21:02:45.104Z,8.90
2018-02-22T21:05:14.994Z,9.53
2018-02-22T21:07:44.886Z,7.27
2018-02-22T21:10:14.731Z,7.63
2018-02-22T21:12:44.592Z,7.67
2018-02-22T21:15:14.450Z,8.33
2018-02-22T21:17:44.297Z,10.07
2018-02-22T21:20:14.226Z,13.67
2018-02-22T21:22:44.136Z,10.07
2018-02-22T21:25:14.045Z,7.90
2018-02-22T21:27:43.905Z,7.47
2018-02-22T21:30:13.769Z,10.07
2018-02-22T21:32:43.664Z,9.80
2018-02-22T21:35:13.655Z,7.80
2018-02-22T21:37:43.493Z,7.70
2018-02-22T21:40:13.316Z,8.20
2018-02-22T21:42:43.237Z,9.80
2018-02-22T21:45:13.324Z,11.23
2018-02-22T21:47:43.300Z,10.03
2018-02-22T21:50:13.187Z,9.40
2018-02-22T21:52:43.165Z,10.83
2018-02-22T21:55:13.230Z,7.80
2018-02-22T21:57:43.405Z,9.60
2018-02-22T22:00:13.247Z,12.00
2018-02-22T22:02:43.286Z,8.43
2018-02-22T22:05:13.820Z,7.27
2018-02-22T22:07:43.930Z,7.90
2018-02-22T22:10:14.015Z,10.00
2018-02-22T22:12:43.898Z,8.40
2018-02-22T22:15:14.158Z,9.03
2018-02-22T22:17:44.219Z,11.13
2018-02-22T22:20:14.071Z,11.40
2018-02-22T22:22:44.208Z,8.97
2018-02-22T22:25:14.050Z,12.60
2018-02-22T22:27:43.982Z,8.93
2018-02-22T22:30:13.970Z,7.20
2018-02-22T22:32:43.937Z,9.20
2018-02-22T22:35:14.056Z,9.23
2018-02-22T22:37:45.179Z,8.03
2018-02-22T22:40:15.097Z,8.03
2018-02-22T22:42:45.018Z,7.30
2018-02-22T22:45:14.852Z,12.03
2018-02-22T22:47:44.714Z,10.10
2018-02-22T22:50:14.677Z,9.80
2018-02-22T22:52:44.626Z,8.60
2018-02-22T22:55:14.483Z,10.70
2018-02-22T22:57:44.318Z,10.13
2018-02-22T23:00:16.341Z,8.43
2018-02-22T23:02:46.694Z,12.83
2018-02-22T23:05:16.605Z,6.10
2018-02-22T23:07:46.629Z,9.60
2018-02-22T23:10:16.546Z,7.77
2018-02-22T23:12:46.491Z,10.10
2018-02-22T23:15:16.447Z,8.30
2018-02-22T23:17:46.295Z,8.30
2018-02-22T23:20:16.344Z,10.30
2018-02-22T23:22:46.293Z,9.73
2018-02-22T23:25:16.260Z,12.90
2018-02-22T23:27:46.145Z,8.63
2018-02-22T23:30:16.050Z,11.77
2018-02-22T23:32:45.966Z,9.23
2018-02-22T23:35:15.856Z,14.20
2018-02-22T23:37:45.822Z,9.20
2018-02-22T23:40:21.409Z,11.40
2018-02-22T23:42:51.250Z,6.67
2018-02-22T23:45:21.206Z,9.80
2018-02-22T23:47:51.229Z,11.03
2018-02-22T23:50:21.145Z,11.70
2018-02-22T23:52:50.965Z,8.03
2018-02-22T23:55:20.854Z,9.30
2018-02-22T23:57:50.687Z,7.97
